PST,Max TemperatureF,Mean TemperatureF,Min TemperatureF,Max Dew PointF,MeanDew PointF,Min DewpointF,Max Humidity, Mean Humidity, Min Humidity, Max Sea Level PressureIn, Mean Sea Level PressureIn, Min Sea Level PressureIn, Max VisibilityMiles, Mean VisibilityMiles, Min VisibilityMiles, Max Wind SpeedMPH, Mean Wind SpeedMPH, Max Gust SpeedMPH,PrecipitationIn, CloudCover, Events, WindDirDegrees
2013-12-1,56,41,26,38,33,26,100,75,50,30.45,30.32,30.11,10,10,9,22,6,28,0.00,2,,194
2013-12-2,46,37,28,40,32,21,89,74,62,30.08,29.93,29.84,10,10,4,30,14,38,0.11,5,Rain,281
2013-12-3,32,23,13,19,13,3,92,67,47,30.10,29.98,29.89,10,10,10,17,6,23,0.00,4,,356
2013-12-4,25,15,5,8,4,1,80,66,46,30.21,30.17,30.11,10,10,10,9,4,13,0.00,0,,28
2013-12-5,24,11,-3,9,3,-6,87,68,46,30.28,30.18,30.11,10,10,7,8,1,9,0.00,2,,111
2013-12-6,28,19,9,23,18,8,100,86,67,30.08,29.83,29.71,10,4,0,17,5,21,T,8,Snow,176
2013-12-7,21,3,-16,19,4,-16,100,84,67,30.42,29.98,29.68,10,7,1,20,8,22,T,5,Snow,331
2013-12-8,6,-7,-20,0,-14,-26,92,81,72,30.68,30.48,30.22,10,8,2,6,1,6,0.00,1,Fog,64
2013-12-9,14,-1,-17,5,-8,-20,100,80,67,30.80,30.72,30.65,10,8,5,7,1,8,0.00,0,,233
2013-12-10,23,8,-8,13,1,-10,100,82,67,30.67,30.58,30.40,10,8,4,7,0,8,0.00,1,,330
2013-12-11,26,12,-3,17,5,-5,95,84,68,30.56,30.48,30.27,10,8,2,10,1,12,0.00,0,,322
2013-12-12,29,14,-1,23,7,-2,95,88,68,30.48,30.33,30.25,10,5,0,15,1,16,0.00,3,Fog,341
2013-12-13,40,27,14,31,19,10,96,86,70,30.54,30.41,30.25,10,5,0,8,1,8,T,4,Snow,46
2013-12-14,34,24,14,28,18,10,100,87,77,30.64,30.52,30.44,10,3,0,9,1,10,0.00,3,,350
2013-12-15,36,24,11,27,14,9,92,87,70,30.62,30.50,30.44,10,2,0,7,1,7,0.00,2,Fog,330
2013-12-16,39,24,9,26,13,7,96,85,59,30.61,30.48,30.43,10,4,0,10,2,12,0.00,1,Fog,328
2013-12-17,43,27,11,26,17,10,92,84,53,30.44,30.33,30.22,10,7,2,5,1,6,0.00,0,,340
2013-12-18,37,24,10,29,19,9,96,83,64,30.21,30.05,29.91,10,7,2,15,3,17,0.00,2,,331
2013-12-19,33,21,9,23,13,5,85,64,33,30.20,30.07,29.90,10,10,10,21,8,26,0.00,1,,360
2013-12-20,40,23,5,36,19,4,92,73,45,30.21,30.09,29.95,10,10,9,10,3,13,T,6,Rain,124
2013-12-21,46,35,23,35,32,23,92,81,60,30.25,30.09,29.98,10,10,10,14,6,16,0.00,2,,277
2013-12-22,51,37,23,38,28,21,100,84,56,30.45,30.37,30.25,10,10,7,9,2,12,0.00,1,,109
2013-12-23,44,33,21,38,27,19,100,92,70,30.53,30.44,30.40,10,6,0,17,1,21,T,5,Fog,163
2013-12-24,40,30,20,34,28,19,100,97,92,30.57,30.49,30.42,10,2,0,10,2,12,0.00,3,Fog,137
2013-12-25,40,30,19,31,21,15,96,87,64,30.60,30.51,30.45,10,4,0,7,1,9,0.00,3,Fog,78
2013-12-26,46,30,13,27,18,11,100,84,45,30.55,30.44,30.38,10,8,0,5,1,6,0.00,1,Fog,80
2013-12-27,35,25,14,27,21,12,92,84,70,30.37,30.33,30.28,10,10,10,15,3,16,0.00,1,,337
2013-12-28,46,30,13,26,17,11,92,70,37,30.45,30.40,30.32,10,10,10,13,4,14,0.00,0,,348
2013-12-29,41,27,12,22,15,9,92,70,40,30.49,30.42,30.36,10,10,10,8,1,9,0.00,0,,24
2013-12-30,42,29,15,24,18,13,88,71,36,30.40,30.34,30.29,10,10,9,6,1,7,0.00,0,,325
2013-12-31,53,38,22,25,22,16,96,66,24,30.37,30.32,30.25,10,10,8,7,1,7,0.00,1,,13